Exceptional Flight Instruction

Our Team

Safe Aircraft

Our Rentals

Outstanding Customer Service

Contact Us

AeroCamp

AeroCamp Times (M-F 9AM-3PM)
June 20-24, 2016 – OPEN
July 11-15, 2016 – OPEN
July 25-29, 2016 – OPEN
$599/wk per Cadet (Roster size limited)

AeroCamp 2.0 Times (M-T 9AM-3PM)
June 27-30, 2016 – FULL
August 8-11, 2016 – FULL
$699/wk per Cadet (Roster size limited)

AeroCamp 3.0 Times (M-W – INCLUDES KITTY HAWK!)
June 13-15, 2016 – FULL
July 6-8, 2016 – OPEN
$799/wk per Cadet (Roster size limited)

About Us

Triad Aviation Academy, LLC


1030 PTI Drive
Greensboro, NC 27409

Phone: (336) 369-2804
Fax: (336) 664-6942

Weather

Available data for KGSO from the past 2 hours
GREENSBORO, NC
Metar
KGSO 240454Z 26004KT 10SM SCT250 12/11 A3005 RMK AO2 SLP170 T01220106 402170094

04:54 UTC

Wind: 260° 4kt

Visibility: 10 SM

Sky: SCT 25000 ft

Temp: 12 deg C / 53.6 deg F

Dewpoint: 11 deg C / 51.8 deg F

Pressure: 30.05 inHg

TAF
KGSO 232320Z 2400/2424 35004KT P6SM BKN080 FM241500 25007KT P6SM SCT030